createdAt,value
2018-06-01T00:01:36.213Z,22.20
2018-06-01T00:04:04.445Z,22.10
2018-06-01T00:06:31.938Z,22.10
2018-06-01T00:09:00.185Z,22.10
2018-06-01T00:11:28.085Z,22.10
2018-06-01T00:13:56.617Z,22.10
2018-06-01T00:16:24.090Z,22.10
2018-06-01T00:18:51.573Z,22.10
2018-06-01T00:21:19.820Z,22.20
2018-06-01T00:23:47.313Z,22.20
2018-06-01T00:26:15.578Z,22.20
2018-06-01T00:28:43.829Z,22.10
2018-06-01T00:31:11.313Z,22.10
2018-06-01T00:33:39.573Z,22.20
2018-06-01T00:36:07.041Z,22.10
2018-06-01T00:38:35.281Z,22.00
2018-06-01T00:41:03.538Z,22.00
2018-06-01T00:43:31.005Z,21.90
2018-06-01T00:45:58.493Z,22.00
2018-06-01T00:48:25.961Z,22.00
2018-06-01T00:50:54.209Z,21.90
2018-06-01T00:53:21.681Z,21.90
2018-06-01T00:55:49.934Z,21.90
2018-06-01T00:58:17.408Z,21.90
2018-06-01T01:00:44.895Z,21.90
2018-06-01T01:03:12.371Z,21.90
2018-06-01T01:05:39.857Z,22.00
2018-06-01T01:08:07.331Z,22.00
2018-06-01T01:10:35.577Z,21.90
2018-06-01T01:13:03.070Z,21.80
2018-06-01T01:15:31.311Z,21.70
2018-06-01T01:17:58.794Z,21.70
2018-06-01T01:20:27.041Z,21.70
2018-06-01T01:22:54.529Z,21.70
2018-06-01T01:25:22.769Z,21.70
2018-06-01T01:27:50.258Z,21.70
2018-06-01T01:30:18.498Z,21.70
2018-06-01T01:32:45.982Z,21.70
2018-06-01T01:35:13.461Z,21.80
2018-06-01T01:37:40.953Z,21.90
2018-06-01T01:40:08.431Z,21.90
2018-06-01T01:42:35.903Z,21.80
2018-06-01T01:45:03.410Z,21.90
2018-06-01T01:47:30.885Z,21.80
2018-06-01T01:49:58.369Z,21.80
2018-06-01T01:52:25.842Z,21.80
2018-06-01T01:54:54.089Z,21.70
2018-06-01T01:57:21.570Z,21.70
2018-06-01T01:59:49.824Z,21.60
2018-06-01T02:02:17.299Z,21.60
2018-06-01T02:04:45.549Z,21.50
2018-06-01T02:07:13.025Z,21.50
2018-06-01T02:09:41.276Z,21.50
2018-06-01T02:12:08.753Z,21.50
2018-06-01T02:14:36.989Z,21.60
2018-06-01T02:17:04.482Z,21.60
2018-06-01T02:19:31.953Z,21.40
2018-06-01T02:22:00.205Z,21.50
2018-06-01T02:24:27.675Z,21.40
2018-06-01T02:26:55.934Z,21.40
2018-06-01T02:29:23.401Z,21.40
2018-06-01T02:31:51.656Z,21.40
2018-06-01T02:34:19.133Z,21.40
2018-06-01T02:36:47.389Z,21.30
2018-06-01T02:39:14.867Z,21.20
2018-06-01T02:41:43.110Z,21.30
2018-06-01T02:44:10.610Z,21.30
2018-06-01T02:46:38.083Z,21.50
2018-06-01T02:49:05.570Z,21.50
2018-06-01T02:51:33.046Z,21.40
2018-06-01T02:54:00.531Z,21.40
2018-06-01T02:56:28.770Z,21.30
2018-06-01T02:58:56.257Z,21.30
2018-06-01T03:01:24.493Z,21.40
2018-06-01T03:03:51.978Z,21.30
2018-06-01T03:06:20.213Z,21.20
2018-06-01T03:08:47.839Z,21.20
2018-06-01T03:11:15.309Z,21.30
2018-06-01T03:13:42.781Z,21.30
2018-06-01T03:16:10.268Z,21.20
2018-06-01T03:18:37.736Z,21.40
2018-06-01T03:21:05.998Z,21.40
2018-06-01T03:23:33.465Z,21.40
2018-06-01T03:26:01.737Z,21.50
2018-06-01T03:28:29.981Z,21.40
2018-06-01T03:30:57.472Z,21.40
2018-06-01T03:33:25.714Z,20.90
2018-06-01T03:35:53.204Z,20.90
2018-06-01T03:38:21.450Z,20.50
2018-06-01T03:40:48.921Z,20.50
2018-06-01T03:43:16.405Z,20.20
2018-06-01T03:45:43.873Z,19.80
2018-06-01T03:48:11.369Z,19.50
2018-06-01T03:50:38.851Z,19.30
2018-06-01T03:53:07.105Z,19.10
2018-06-01T03:55:34.576Z,19.10
2018-06-01T03:58:02.829Z,19.00
2018-06-01T04:00:30.301Z,19.00
2018-06-01T04:02:57.826Z,19.00
2018-06-01T04:05:25.292Z,18.90
2018-06-01T04:07:52.769Z,18.80
2018-06-01T04:10:20.253Z,18.80
2018-06-01T04:12:47.728Z,18.70
2018-06-01T04:15:15.217Z,18.70
2018-06-01T04:17:42.692Z,18.70
2018-06-01T04:20:10.177Z,18.60
2018-06-01T04:22:37.641Z,18.60
2018-06-01T04:25:05.133Z,18.50
2018-06-01T04:27:32.602Z,18.50
2018-06-01T04:30:00.097Z,18.50
2018-06-01T04:32:28.333Z,18.60
2018-06-01T04:34:55.805Z,18.50
2018-06-01T04:37:23.294Z,18.50
2018-06-01T04:39:50.782Z,18.50
2018-06-01T04:42:18.265Z,18.50
2018-06-01T04:44:45.737Z,18.50
2018-06-01T04:47:13.992Z,18.60
2018-06-01T04:49:41.461Z,18.60
2018-06-01T04:52:09.724Z,18.60
2018-06-01T04:54:37.193Z,18.60
2018-06-01T04:57:05.449Z,18.60
2018-06-01T04:59:32.929Z,18.60
2018-06-01T05:02:01.181Z,18.60
2018-06-01T05:04:28.653Z,18.60
2018-06-01T05:06:56.908Z,18.70
2018-06-01T05:09:24.387Z,18.60
2018-06-01T05:11:52.641Z,18.70
2018-06-01T05:14:20.114Z,18.60
2018-06-01T05:16:48.358Z,18.70
2018-06-01T05:19:15.841Z,18.70
2018-06-01T05:21:44.089Z,18.80
2018-06-01T05:24:11.581Z,18.80
2018-06-01T05:26:39.817Z,18.90
2018-06-01T05:29:07.344Z,18.90
2018-06-01T05:31:34.817Z,18.90
2018-06-01T05:34:02.622Z,19.00
2018-06-01T05:36:30.089Z,19.00
2018-06-01T05:38:58.329Z,19.10
2018-06-01T05:41:25.818Z,19.00
2018-06-01T05:43:54.057Z,19.00
2018-06-01T05:46:21.565Z,19.00
2018-06-01T05:48:49.042Z,19.00
2018-06-01T05:51:17.285Z,19.10
2018-06-01T05:53:45.609Z,19.10
2018-06-01T05:56:13.128Z,19.20
2018-06-01T05:58:40.641Z,19.10
2018-06-01T06:01:08.130Z,19.20
2018-06-01T06:03:36.374Z,19.30
2018-06-01T06:06:03.864Z,19.30
2018-06-01T06:08:32.129Z,19.50
2018-06-01T06:11:00.366Z,19.50
2018-06-01T06:13:27.846Z,19.40
2018-06-01T06:15:55.336Z,19.50
2018-06-01T06:18:22.813Z,19.50
2018-06-01T06:20:50.296Z,19.50
2018-06-01T06:23:17.769Z,19.60
2018-06-01T06:25:45.354Z,19.50
2018-06-01T06:28:13.506Z,19.50
2018-06-01T06:30:41.745Z,19.60
2018-06-01T06:33:09.230Z,19.60
2018-06-01T06:35:36.706Z,19.60
2018-06-01T06:38:04.957Z,19.80
2018-06-01T06:40:32.429Z,19.80
2018-06-01T06:43:00.701Z,19.90
2018-06-01T06:45:28.941Z,20.00
2018-06-01T06:47:56.418Z,20.00
2018-06-01T06:50:23.908Z,20.20
2018-06-01T06:52:51.390Z,20.30
2018-06-01T06:55:18.885Z,20.30
2018-06-01T06:57:46.362Z,20.40
2018-06-01T07:00:14.618Z,20.50
2018-06-01T07:02:42.097Z,20.50
2018-06-01T07:05:09.705Z,20.60
2018-06-01T07:07:37.190Z,20.70
2018-06-01T07:10:04.658Z,20.80
2018-06-01T07:12:32.914Z,21.10
2018-06-01T07:15:00.391Z,21.10
2018-06-01T07:17:28.683Z,21.70
2018-06-01T07:19:56.161Z,21.60
2018-06-01T07:22:23.665Z,22.60
2018-06-01T07:24:51.129Z,23.80
2018-06-01T07:27:19.371Z,24.80
2018-06-01T07:29:46.859Z,24.80
2018-06-01T07:32:15.097Z,24.70
2018-06-01T07:34:42.585Z,24.70
2018-06-01T07:37:10.830Z,24.40
2018-06-01T07:39:38.371Z,24.40
2018-06-01T07:42:05.856Z,24.10
2018-06-01T07:44:33.333Z,23.90
2018-06-01T07:47:01.593Z,23.10
2018-06-01T07:49:29.068Z,23.10
2018-06-01T07:51:57.322Z,22.90
2018-06-01T07:54:24.797Z,22.90
2018-06-01T07:56:53.033Z,23.20
2018-06-01T07:59:20.521Z,23.20
2018-06-01T08:01:48.760Z,23.20
2018-06-01T08:04:16.249Z,23.20
2018-06-01T08:06:44.491Z,23.50
2018-06-01T08:09:12.019Z,23.50
2018-06-01T08:11:40.245Z,23.50
2018-06-01T08:14:07.718Z,23.50
2018-06-01T08:16:36.005Z,23.40
2018-06-01T08:19:03.483Z,23.40
2018-06-01T08:21:30.956Z,23.60
2018-06-01T08:23:58.451Z,23.50
2018-06-01T08:26:26.689Z,23.30
2018-06-01T08:28:54.185Z,23.30
2018-06-01T08:31:22.425Z,23.10
2018-06-01T08:33:49.933Z,23.10
2018-06-01T08:36:17.413Z,22.90
2018-06-01T08:38:44.889Z,22.90
2018-06-01T08:41:12.376Z,22.70
2018-06-01T08:43:40.622Z,22.70
2018-06-01T08:46:08.121Z,22.60
2018-06-01T08:48:36.374Z,22.60
2018-06-01T08:51:03.855Z,22.60
2018-06-01T08:53:32.114Z,22.30
2018-06-01T08:56:00.353Z,22.40
2018-06-01T08:58:27.846Z,22.30
2018-06-01T09:00:56.099Z,22.40
2018-06-01T09:03:24.425Z,22.40
2018-06-01T09:05:51.906Z,22.30
2018-06-01T09:08:19.373Z,22.20
2018-06-01T09:10:46.896Z,22.10
2018-06-01T09:13:14.379Z,22.00
2018-06-01T09:15:41.868Z,21.70
2018-06-01T09:18:09.351Z,21.60
2018-06-01T09:20:37.202Z,21.50
2018-06-01T09:23:05.442Z,21.50
2018-06-01T09:25:32.917Z,21.40
2018-06-01T09:28:01.179Z,21.40
2018-06-01T09:30:28.654Z,21.40
2018-06-01T09:32:56.905Z,21.30
2018-06-01T09:35:24.394Z,21.40
2018-06-01T09:37:52.658Z,21.20
2018-06-01T09:40:20.901Z,21.20
2018-06-01T09:42:48.369Z,21.20
2018-06-01T09:45:15.858Z,20.90
2018-06-01T09:47:44.101Z,20.80
2018-06-01T09:50:11.589Z,20.80
2018-06-01T09:52:39.829Z,21.10
2018-06-01T09:55:07.325Z,21.00
2018-06-01T09:57:34.809Z,21.00
2018-06-01T10:00:02.283Z,21.00
2018-06-01T10:02:29.773Z,20.80
2018-06-01T10:04:58.013Z,21.00
2018-06-01T10:07:25.500Z,21.00
2018-06-01T10:09:59.401Z,21.10
2018-06-01T10:12:26.889Z,21.10
2018-06-01T10:14:54.369Z,21.10
2018-06-01T10:17:21.841Z,21.20
2018-06-01T10:19:49.333Z,21.30
2018-06-01T10:22:17.582Z,21.10
2018-06-01T10:24:45.078Z,21.10
2018-06-01T10:27:13.317Z,20.90
2018-06-01T10:29:41.410Z,20.80
2018-06-01T10:32:09.653Z,20.70
2018-06-01T10:34:37.133Z,20.70
2018-06-01T10:37:04.622Z,20.30
2018-06-01T10:39:32.114Z,20.40
2018-06-01T10:42:00.499Z,20.10
2018-06-01T10:44:27.974Z,20.00
2018-06-01T10:46:55.465Z,20.00
2018-06-01T10:49:22.942Z,20.00
2018-06-01T10:51:50.413Z,20.00
2018-06-01T10:54:17.908Z,20.10
2018-06-01T10:56:46.153Z,19.70
2018-06-01T10:59:13.633Z,19.70
2018-06-01T11:01:41.101Z,19.60
2018-06-01T11:04:09.365Z,19.60
2018-06-01T11:06:37.607Z,19.60
2018-06-01T11:09:05.078Z,19.60
2018-06-01T11:11:32.563Z,19.60
2018-06-01T11:14:00.811Z,19.60
2018-06-01T11:16:28.297Z,19.60
2018-06-01T11:18:56.534Z,19.70
2018-06-01T11:21:24.064Z,19.70
2018-06-01T11:23:52.269Z,19.90
2018-06-01T11:26:19.782Z,19.90
2018-06-01T11:28:47.253Z,19.80
2018-06-01T11:31:14.725Z,19.60
2018-06-01T11:33:42.212Z,19.60
2018-06-01T11:36:10.442Z,19.50
2018-06-01T11:38:37.921Z,19.50
2018-06-01T11:41:05.389Z,19.40
2018-06-01T11:43:32.868Z,19.40
2018-06-01T11:46:01.101Z,19.50
2018-06-01T11:48:28.886Z,19.50
2018-06-01T11:50:57.125Z,19.00
2018-06-01T11:53:24.597Z,18.90
2018-06-01T11:55:52.077Z,19.00
2018-06-01T11:58:20.372Z,19.20
2018-06-01T12:00:47.865Z,19.20
2018-06-01T12:03:16.101Z,19.00
2018-06-01T12:05:43.598Z,19.00
2018-06-01T12:08:11.070Z,19.00
2018-06-01T12:10:38.568Z,19.20
2018-06-01T12:13:06.052Z,19.30
2018-06-01T12:15:33.526Z,19.40
2018-06-01T12:18:01.014Z,19.50
2018-06-01T12:20:29.302Z,19.60
2018-06-01T12:22:57.577Z,19.50
2018-06-01T12:25:25.815Z,19.40
2018-06-01T12:27:53.297Z,19.40
2018-06-01T12:30:21.563Z,19.60
2018-06-01T12:32:49.026Z,19.60
2018-06-01T12:35:17.284Z,19.60
2018-06-01T12:37:44.758Z,19.60
2018-06-01T12:40:13.015Z,19.70
2018-06-01T12:42:40.494Z,19.60
2018-06-01T12:45:08.728Z,19.70
2018-06-01T12:47:36.213Z,19.60
2018-06-01T12:50:04.454Z,19.60
2018-06-01T12:52:31.937Z,19.50
2018-06-01T12:54:59.412Z,19.50
2018-06-01T12:57:26.905Z,19.60
2018-06-01T12:59:54.380Z,19.60
2018-06-01T13:02:21.854Z,19.40
2018-06-01T13:04:49.375Z,19.50
2018-06-01T13:07:16.874Z,19.60
2018-06-01T13:09:44.361Z,19.50
2018-06-01T13:12:11.832Z,19.40
2018-06-01T13:14:39.334Z,19.50
2018-06-01T13:17:06.814Z,19.70
2018-06-01T13:19:35.095Z,19.70
2018-06-01T13:22:03.349Z,19.70
2018-06-01T13:24:30.815Z,19.70
2018-06-01T13:26:59.066Z,19.60
2018-06-01T13:29:26.538Z,19.60
2018-06-01T13:31:54.789Z,19.50
2018-06-01T13:34:22.261Z,19.50
2018-06-01T13:36:49.764Z,19.40
2018-06-01T13:39:17.229Z,19.30
2018-06-01T13:41:44.693Z,19.20
2018-06-01T13:44:12.181Z,19.20
2018-06-01T13:46:39.646Z,19.20
2018-06-01T13:49:07.125Z,19.10
2018-06-01T13:51:35.530Z,19.00
2018-06-01T13:54:03.079Z,19.10
2018-06-01T13:56:30.547Z,19.00
2018-06-01T13:58:58.053Z,19.00
2018-06-01T14:01:26.293Z,18.90
2018-06-01T14:03:53.776Z,18.90
2018-06-01T14:06:21.264Z,19.00
2018-06-01T14:08:48.754Z,19.10
2018-06-01T14:11:16.229Z,19.20
2018-06-01T14:13:43.701Z,18.90
2018-06-01T14:16:11.200Z,19.00
2018-06-01T14:18:38.672Z,19.00
2018-06-01T14:21:06.149Z,19.00
2018-06-01T14:23:33.614Z,19.00
2018-06-01T14:26:01.093Z,19.00
2018-06-01T14:28:29.327Z,19.00
2018-06-01T14:30:56.812Z,19.00
2018-06-01T14:33:24.281Z,19.00
2018-06-01T14:35:52.520Z,19.10
2018-06-01T14:38:20.005Z,19.10
2018-06-01T14:40:48.260Z,18.90
2018-06-01T14:43:15.738Z,18.80
2018-06-01T14:45:43.979Z,18.70
2018-06-01T14:48:11.469Z,18.70
2018-06-01T14:50:39.705Z,18.90
2018-06-01T14:53:07.186Z,18.90
2018-06-01T14:55:34.667Z,19.00
2018-06-01T14:58:02.140Z,19.00
2018-06-01T15:00:29.626Z,19.00
2018-06-01T15:02:57.094Z,19.10
2018-06-01T15:05:24.592Z,19.00
2018-06-01T15:07:52.062Z,18.90
2018-06-01T15:10:19.581Z,18.90
2018-06-01T15:12:47.064Z,19.00
2018-06-01T15:15:14.542Z,19.00
2018-06-01T15:17:42.040Z,19.10
2018-06-01T15:20:09.513Z,19.00
2018-06-01T15:22:38.098Z,19.00
2018-06-01T15:25:06.334Z,18.90
2018-06-01T15:27:33.808Z,18.80
2018-06-01T15:30:01.290Z,18.70
2018-06-01T15:32:29.544Z,18.80
2018-06-01T15:34:57.035Z,18.70
2018-06-01T15:37:24.515Z,18.70
2018-06-01T15:39:51.989Z,18.60
2018-06-01T15:42:20.378Z,18.60
2018-06-01T15:44:47.848Z,18.40
2018-06-01T15:47:16.110Z,18.50
2018-06-01T15:49:43.577Z,18.40
2018-06-01T15:52:11.045Z,18.50
2018-06-01T15:54:39.290Z,18.40
2018-06-01T15:57:06.754Z,18.40
2018-06-01T15:59:34.238Z,18.30
2018-06-01T16:02:02.473Z,18.20
2018-06-01T16:04:29.946Z,18.20
2018-06-01T16:06:58.202Z,17.90
2018-06-01T16:09:25.721Z,17.90
2018-06-01T16:11:53.938Z,18.00
2018-06-01T16:14:21.406Z,18.00
2018-06-01T16:16:48.876Z,17.90
2018-06-01T16:19:17.125Z,17.80
2018-06-01T16:21:44.593Z,17.70
2018-06-01T16:24:12.082Z,17.70
2018-06-01T16:26:39.569Z,17.80
2018-06-01T16:29:07.035Z,17.80
2018-06-01T16:31:34.525Z,17.80
2018-06-01T16:34:02.757Z,17.90
2018-06-01T16:36:31.109Z,17.80
2018-06-01T16:38:58.581Z,17.80
2018-06-01T16:41:26.046Z,18.00
2018-06-01T16:43:53.529Z,17.90
2018-06-01T16:46:20.997Z,17.90
2018-06-01T16:48:49.252Z,17.90
2018-06-01T16:51:16.741Z,17.90
2018-06-01T16:53:44.973Z,17.90
2018-06-01T16:56:12.459Z,17.90
2018-06-01T16:58:40.697Z,17.80
2018-06-01T17:01:08.493Z,17.80
2018-06-01T17:03:36.733Z,17.90
2018-06-01T17:06:04.202Z,17.90
2018-06-01T17:08:31.686Z,17.90
2018-06-01T17:10:59.917Z,17.90
2018-06-01T17:13:27.409Z,17.80
2018-06-01T17:15:55.645Z,17.90
2018-06-01T17:18:23.133Z,17.90
2018-06-01T17:20:50.618Z,17.90
2018-06-01T17:23:18.093Z,18.00
2018-06-01T17:25:45.580Z,17.90
2018-06-01T17:28:13.053Z,18.00
2018-06-01T17:30:40.545Z,18.10
2018-06-01T17:33:08.021Z,18.10
2018-06-01T17:35:35.489Z,18.10
2018-06-01T17:38:02.978Z,18.10
2018-06-01T17:40:30.448Z,18.00
2018-06-01T17:42:58.697Z,18.30
2018-06-01T17:45:26.170Z,18.20
2018-06-01T17:47:54.413Z,18.20
2018-06-01T17:50:21.912Z,18.10
2018-06-01T17:52:50.149Z,18.20
2018-06-01T17:55:17.634Z,18.30
2018-06-01T17:57:45.889Z,18.20
2018-06-01T18:00:13.362Z,18.20
2018-06-01T18:02:41.613Z,18.30
2018-06-01T18:05:09.089Z,18.30
2018-06-01T18:07:37.341Z,18.50
2018-06-01T18:10:04.822Z,18.50
2018-06-01T18:12:33.078Z,18.50
2018-06-01T18:15:00.559Z,18.50
2018-06-01T18:17:28.793Z,18.50
2018-06-01T18:19:56.279Z,18.50
2018-06-01T18:22:24.587Z,18.50
2018-06-01T18:24:52.025Z,18.50
2018-06-01T18:27:19.508Z,18.40
2018-06-01T18:29:46.986Z,18.50
2018-06-01T18:32:14.488Z,18.60
2018-06-01T18:34:42.017Z,18.70
2018-06-01T18:37:09.482Z,18.60
2018-06-01T18:39:36.957Z,18.60
2018-06-01T18:42:04.455Z,18.50
2018-06-01T18:44:31.941Z,18.50
2018-06-01T18:46:59.414Z,18.60
2018-06-01T18:49:27.728Z,18.50
2018-06-01T18:51:55.164Z,18.50
2018-06-01T18:54:22.635Z,18.60
2018-06-01T18:56:50.128Z,18.60
2018-06-01T18:59:17.606Z,18.60
2018-06-01T19:01:45.118Z,18.60
2018-06-01T19:04:12.598Z,18.70
2018-06-01T19:06:40.074Z,18.70
2018-06-01T19:09:07.609Z,18.60
2018-06-01T19:11:35.049Z,18.60
2018-06-01T19:14:02.546Z,18.60
2018-06-01T19:16:30.014Z,18.60
2018-06-01T19:18:58.261Z,18.50
2018-06-01T19:21:25.750Z,18.50
2018-06-01T19:23:53.989Z,18.60
2018-06-01T19:26:21.877Z,18.50
2018-06-01T19:28:50.129Z,18.40
2018-06-01T19:31:17.609Z,18.40
2018-06-01T19:33:46.721Z,18.30
2018-06-01T19:36:14.196Z,18.30
2018-06-01T19:38:41.689Z,18.40
2018-06-01T19:41:09.165Z,18.30
2018-06-01T19:43:37.413Z,18.60
2018-06-01T19:46:04.897Z,18.60
2018-06-01T19:48:33.193Z,18.40
2018-06-01T19:51:01.037Z,18.40
2018-06-01T19:53:29.281Z,18.40
2018-06-01T19:55:56.766Z,18.30
2018-06-01T19:58:25.040Z,18.50
2018-06-01T20:00:53.277Z,18.50
2018-06-01T20:03:21.649Z,18.50
2018-06-01T20:05:49.133Z,18.40
2018-06-01T20:08:16.631Z,18.40
2018-06-01T20:10:44.130Z,18.40
2018-06-01T20:13:12.477Z,18.30
2018-06-01T20:15:41.074Z,18.30
2018-06-01T20:18:08.605Z,18.30
2018-06-01T20:20:36.078Z,18.30
2018-06-01T20:23:03.565Z,18.40
2018-06-01T20:25:31.043Z,18.50
2018-06-01T20:27:59.357Z,18.40
2018-06-01T20:30:26.848Z,18.30
2018-06-01T20:32:54.344Z,18.30
2018-06-01T20:35:22.601Z,18.40
2018-06-01T20:37:50.081Z,18.40
2018-06-01T20:40:18.469Z,18.50
2018-06-01T20:42:45.953Z,18.50
2018-06-01T20:45:13.427Z,18.40
2018-06-01T20:47:40.913Z,18.30
2018-06-01T20:50:09.185Z,18.20
2018-06-01T20:52:37.470Z,18.20
2018-06-01T20:55:05.713Z,18.20
2018-06-01T20:57:33.181Z,18.20
2018-06-01T21:00:00.683Z,18.20
2018-06-01T21:02:28.228Z,18.20
2018-06-01T21:04:55.730Z,18.20
2018-06-01T21:07:23.197Z,18.30
2018-06-01T21:09:50.689Z,18.30
2018-06-01T21:12:18.252Z,18.20
2018-06-01T21:14:45.741Z,18.20
2018-06-01T21:17:13.234Z,18.20
2018-06-01T21:19:40.703Z,18.20
2018-06-01T21:22:09.040Z,18.20
2018-06-01T21:24:36.517Z,18.20
2018-06-01T21:27:04.862Z,18.10
2018-06-01T21:29:32.333Z,18.10
2018-06-01T21:31:59.814Z,18.10
2018-06-01T21:34:28.159Z,18.20
2018-06-01T21:36:55.658Z,18.20
2018-06-01T21:39:23.913Z,17.80
2018-06-01T21:41:51.381Z,17.80
2018-06-01T21:44:19.669Z,17.60
2018-06-01T21:46:47.938Z,17.60
2018-06-01T21:49:16.179Z,17.50
2018-06-01T21:51:43.665Z,17.50
2018-06-01T21:54:11.905Z,17.40
2018-06-01T21:56:39.473Z,17.40
2018-06-01T21:59:06.945Z,17.40
2018-06-01T22:01:35.205Z,17.40
2018-06-01T22:04:02.673Z,17.40
2018-06-01T22:06:30.909Z,17.40
2018-06-01T22:08:58.401Z,17.30
2018-06-01T22:11:26.645Z,17.30
2018-06-01T22:13:54.141Z,17.30
2018-06-01T22:16:22.386Z,17.30
2018-06-01T22:18:49.877Z,17.30
2018-06-01T22:21:17.372Z,17.30
2018-06-01T22:23:44.841Z,17.30
2018-06-01T22:26:12.345Z,17.20
2018-06-01T22:28:39.930Z,17.30
2018-06-01T22:31:07.721Z,17.30
2018-06-01T22:33:35.193Z,17.20
2018-06-01T22:36:02.688Z,17.20
2018-06-01T22:38:30.168Z,17.30
2018-06-01T22:40:57.641Z,17.30
2018-06-01T22:43:25.149Z,17.20
2018-06-01T22:45:53.389Z,17.30
2018-06-01T22:48:20.881Z,17.30
2018-06-01T22:50:49.123Z,17.30
2018-06-01T22:53:17.390Z,17.30
2018-06-01T22:55:44.864Z,17.30
2018-06-01T22:58:12.344Z,17.20
2018-06-01T23:00:41.821Z,17.20
2018-06-01T23:03:09.295Z,17.20
2018-06-01T23:05:37.549Z,17.20
2018-06-01T23:08:05.022Z,17.20
2018-06-01T23:10:33.281Z,17.30
2018-06-01T23:13:00.753Z,17.30
2018-06-01T23:15:29.000Z,17.30
2018-06-01T23:17:57.257Z,17.30
2018-06-01T23:20:24.889Z,17.30
2018-06-01T23:22:52.390Z,17.30
2018-06-01T23:25:19.865Z,17.20
2018-06-01T23:27:48.109Z,17.20
2018-06-01T23:30:15.597Z,17.20
2018-06-01T23:32:43.841Z,17.20
2018-06-01T23:35:11.337Z,17.20
2018-06-01T23:37:39.580Z,17.30
2018-06-01T23:40:07.069Z,17.20
2018-06-01T23:42:35.320Z,17.30
2018-06-01T23:45:02.793Z,17.20
2018-06-01T23:47:31.050Z,17.30
2018-06-01T23:49:58.525Z,17.20
2018-06-01T23:52:26.782Z,17.30
2018-06-01T23:54:54.261Z,17.20
2018-06-01T23:57:22.501Z,17.20
2018-06-01T23:59:49.993Z,17.20
